sensor_id;sensor_type;location;lat;lon;timestamp;temperature;humidity
23405;DHT22;11875;49.356;2.718;2023-06-14T00:01:38;22.80;89.30
23405;DHT22;11875;49.356;2.718;2023-06-14T00:04:03;22.70;89.70
23405;DHT22;11875;49.356;2.718;2023-06-14T00:06:31;22.70;89.70
23405;DHT22;11875;49.356;2.718;2023-06-14T00:08:56;22.70;89.40
23405;DHT22;11875;49.356;2.718;2023-06-14T00:11:22;22.70;89.40
23405;DHT22;11875;49.356;2.718;2023-06-14T00:13:48;22.70;89.50
23405;DHT22;11875;49.356;2.718;2023-06-14T00:16:13;22.80;90.00
23405;DHT22;11875;49.356;2.718;2023-06-14T00:18:39;22.80;90.20
23405;DHT22;11875;49.356;2.718;2023-06-14T00:21:05;22.80;90.30
23405;DHT22;11875;49.356;2.718;2023-06-14T00:23:30;22.80;90.30
23405;DHT22;11875;49.356;2.718;2023-06-14T00:25:56;22.80;90.40
23405;DHT22;11875;49.356;2.718;2023-06-14T00:28:22;22.80;90.80
23405;DHT22;11875;49.356;2.718;2023-06-14T00:30:47;22.70;90.40
23405;DHT22;11875;49.356;2.718;2023-06-14T00:33:13;22.70;90.40
23405;DHT22;11875;49.356;2.718;2023-06-14T00:35:39;22.60;90.40
23405;DHT22;11875;49.356;2.718;2023-06-14T00:38:05;22.50;90.60
23405;DHT22;11875;49.356;2.718;2023-06-14T00:40:30;22.50;90.70
23405;DHT22;11875;49.356;2.718;2023-06-14T00:42:56;22.40;90.70
23405;DHT22;11875;49.356;2.718;2023-06-14T00:45:22;22.40;91.00
23405;DHT22;11875;49.356;2.718;2023-06-14T00:47:48;22.30;91.10
23405;DHT22;11875;49.356;2.718;2023-06-14T00:50:16;22.20;91.30
23405;DHT22;11875;49.356;2.718;2023-06-14T00:52:42;22.20;91.50
23405;DHT22;11875;49.356;2.718;2023-06-14T00:55:08;22.20;91.40
23405;DHT22;11875;49.356;2.718;2023-06-14T00:57:34;22.20;91.30
23405;DHT22;11875;49.356;2.718;2023-06-14T01:00:03;22.20;91.30
23405;DHT22;11875;49.356;2.718;2023-06-14T01:02:34;22.00;91.20
23405;DHT22;11875;49.356;2.718;2023-06-14T01:05:00;21.90;91.20
23405;DHT22;11875;49.356;2.718;2023-06-14T01:10:22;21.90;91.30
23405;DHT22;11875;49.356;2.718;2023-06-14T01:15:35;21.90;91.30
23405;DHT22;11875;49.356;2.718;2023-06-14T01:18:02;21.80;91.40
23405;DHT22;11875;49.356;2.718;2023-06-14T01:20:32;21.80;91.50
23405;DHT22;11875;49.356;2.718;2023-06-14T01:22:59;21.70;91.50
23405;DHT22;11875;49.356;2.718;2023-06-14T01:25:25;21.70;91.70
23405;DHT22;11875;49.356;2.718;2023-06-14T01:28:03;21.60;91.70
23405;DHT22;11875;49.356;2.718;2023-06-14T01:30:30;21.50;91.90
23405;DHT22;11875;49.356;2.718;2023-06-14T01:32:57;21.50;92.00
23405;DHT22;11875;49.356;2.718;2023-06-14T01:35:23;21.50;92.00
23405;DHT22;11875;49.356;2.718;2023-06-14T01:37:49;21.40;91.80
23405;DHT22;11875;49.356;2.718;2023-06-14T01:40:18;21.20;91.90
23405;DHT22;11875;49.356;2.718;2023-06-14T01:42:46;21.10;92.10
23405;DHT22;11875;49.356;2.718;2023-06-14T01:45:14;21.00;92.20
23405;DHT22;11875;49.356;2.718;2023-06-14T01:47:40;21.00;92.40
23405;DHT22;11875;49.356;2.718;2023-06-14T01:50:06;21.10;92.40
23405;DHT22;11875;49.356;2.718;2023-06-14T01:52:33;21.10;92.30
23405;DHT22;11875;49.356;2.718;2023-06-14T01:54:58;21.10;92.30
23405;DHT22;11875;49.356;2.718;2023-06-14T01:57:28;21.00;92.20
23405;DHT22;11875;49.356;2.718;2023-06-14T01:59:53;20.90;92.40
23405;DHT22;11875;49.356;2.718;2023-06-14T02:02:19;20.90;92.50
23405;DHT22;11875;49.356;2.718;2023-06-14T02:04:45;20.90;92.60
23405;DHT22;11875;49.356;2.718;2023-06-14T02:07:13;20.90;92.50
23405;DHT22;11875;49.356;2.718;2023-06-14T02:09:40;20.90;92.40
23405;DHT22;11875;49.356;2.718;2023-06-14T02:12:06;20.90;92.40
23405;DHT22;11875;49.356;2.718;2023-06-14T02:14:31;20.80;92.50
23405;DHT22;11875;49.356;2.718;2023-06-14T02:16:57;20.60;92.40
23405;DHT22;11875;49.356;2.718;2023-06-14T02:19:23;20.50;92.70
23405;DHT22;11875;49.356;2.718;2023-06-14T02:21:49;20.50;92.70
23405;DHT22;11875;49.356;2.718;2023-06-14T02:24:15;20.50;92.70
23405;DHT22;11875;49.356;2.718;2023-06-14T02:26:41;20.40;92.80
23405;DHT22;11875;49.356;2.718;2023-06-14T02:29:07;20.30;92.70
23405;DHT22;11875;49.356;2.718;2023-06-14T02:31:38;20.30;93.00
23405;DHT22;11875;49.356;2.718;2023-06-14T02:34:04;20.30;92.70
23405;DHT22;11875;49.356;2.718;2023-06-14T02:36:30;20.20;92.80
23405;DHT22;11875;49.356;2.718;2023-06-14T02:38:56;20.10;92.90
23405;DHT22;11875;49.356;2.718;2023-06-14T02:41:25;20.00;92.90
23405;DHT22;11875;49.356;2.718;2023-06-14T02:43:51;19.90;93.10
23405;DHT22;11875;49.356;2.718;2023-06-14T02:46:17;19.90;93.60
23405;DHT22;11875;49.356;2.718;2023-06-14T02:48:43;19.90;93.50
23405;DHT22;11875;49.356;2.718;2023-06-14T02:51:09;19.90;93.50
23405;DHT22;11875;49.356;2.718;2023-06-14T02:53:35;19.90;93.60
23405;DHT22;11875;49.356;2.718;2023-06-14T02:56:02;19.90;93.40
23405;DHT22;11875;49.356;2.718;2023-06-14T02:58:29;19.80;93.30
23405;DHT22;11875;49.356;2.718;2023-06-14T03:00:55;19.70;93.30
23405;DHT22;11875;49.356;2.718;2023-06-14T03:03:20;19.70;93.40
23405;DHT22;11875;49.356;2.718;2023-06-14T03:05:48;19.80;93.90
23405;DHT22;11875;49.356;2.718;2023-06-14T03:08:15;19.80;93.50
23405;DHT22;11875;49.356;2.718;2023-06-14T03:10:48;19.80;93.60
23405;DHT22;11875;49.356;2.718;2023-06-14T03:13:15;19.80;93.40
23405;DHT22;11875;49.356;2.718;2023-06-14T03:15:42;19.80;93.60
23405;DHT22;11875;49.356;2.718;2023-06-14T03:18:08;19.70;93.40
23405;DHT22;11875;49.356;2.718;2023-06-14T03:20:35;19.70;93.50
23405;DHT22;11875;49.356;2.718;2023-06-14T03:23:01;19.70;93.50
23405;DHT22;11875;49.356;2.718;2023-06-14T03:25:27;19.50;93.60
23405;DHT22;11875;49.356;2.718;2023-06-14T03:27:55;19.50;93.90
23405;DHT22;11875;49.356;2.718;2023-06-14T03:30:21;19.50;93.90
23405;DHT22;11875;49.356;2.718;2023-06-14T03:32:46;19.40;94.00
23405;DHT22;11875;49.356;2.718;2023-06-14T03:35:12;19.40;94.00
23405;DHT22;11875;49.356;2.718;2023-06-14T03:37:45;19.30;93.90
23405;DHT22;11875;49.356;2.718;2023-06-14T03:40:12;19.30;93.90
23405;DHT22;11875;49.356;2.718;2023-06-14T03:42:39;19.20;94.00
23405;DHT22;11875;49.356;2.718;2023-06-14T03:45:06;19.20;94.20
23405;DHT22;11875;49.356;2.718;2023-06-14T03:47:31;19.10;94.20
23405;DHT22;11875;49.356;2.718;2023-06-14T03:49:57;19.10;94.20
23405;DHT22;11875;49.356;2.718;2023-06-14T03:52:23;19.10;94.50
23405;DHT22;11875;49.356;2.718;2023-06-14T03:54:49;19.00;94.20
23405;DHT22;11875;49.356;2.718;2023-06-14T03:57:15;19.00;94.30
23405;DHT22;11875;49.356;2.718;2023-06-14T03:59:41;19.00;94.40
23405;DHT22;11875;49.356;2.718;2023-06-14T04:02:07;19.00;94.50
23405;DHT22;11875;49.356;2.718;2023-06-14T04:04:32;19.00;94.40
23405;DHT22;11875;49.356;2.718;2023-06-14T04:07:01;19.00;94.50
23405;DHT22;11875;49.356;2.718;2023-06-14T04:09:29;19.00;94.40
23405;DHT22;11875;49.356;2.718;2023-06-14T04:11:54;19.00;94.50
23405;DHT22;11875;49.356;2.718;2023-06-14T04:14:20;18.80;94.50
23405;DHT22;11875;49.356;2.718;2023-06-14T04:16:47;18.80;94.80
23405;DHT22;11875;49.356;2.718;2023-06-14T04:19:13;18.80;94.80
23405;DHT22;11875;49.356;2.718;2023-06-14T04:21:39;18.80;94.90
23405;DHT22;11875;49.356;2.718;2023-06-14T04:24:05;18.80;94.90
23405;DHT22;11875;49.356;2.718;2023-06-14T04:26:30;18.80;94.80
23405;DHT22;11875;49.356;2.718;2023-06-14T04:28:59;18.80;95.00
23405;DHT22;11875;49.356;2.718;2023-06-14T04:31:28;18.70;95.00
23405;DHT22;11875;49.356;2.718;2023-06-14T04:33:55;18.60;95.00
23405;DHT22;11875;49.356;2.718;2023-06-14T04:36:21;18.60;95.10
23405;DHT22;11875;49.356;2.718;2023-06-14T04:38:47;18.60;95.00
23405;DHT22;11875;49.356;2.718;2023-06-14T04:41:14;18.60;95.00
23405;DHT22;11875;49.356;2.718;2023-06-14T04:43:41;18.60;95.10
23405;DHT22;11875;49.356;2.718;2023-06-14T04:46:08;18.60;95.10
23405;DHT22;11875;49.356;2.718;2023-06-14T04:48:40;18.50;95.40
23405;DHT22;11875;49.356;2.718;2023-06-14T04:51:11;18.60;95.40
23405;DHT22;11875;49.356;2.718;2023-06-14T04:53:36;18.60;95.30
23405;DHT22;11875;49.356;2.718;2023-06-14T04:56:02;18.60;95.50
23405;DHT22;11875;49.356;2.718;2023-06-14T04:58:29;18.60;95.40
23405;DHT22;11875;49.356;2.718;2023-06-14T05:00:55;18.60;95.50
23405;DHT22;11875;49.356;2.718;2023-06-14T05:03:25;18.60;95.70
23405;DHT22;11875;49.356;2.718;2023-06-14T05:05:50;18.60;95.50
23405;DHT22;11875;49.356;2.718;2023-06-14T05:08:19;18.70;95.70
23405;DHT22;11875;49.356;2.718;2023-06-14T05:10:45;18.70;95.80
23405;DHT22;11875;49.356;2.718;2023-06-14T05:13:10;18.80;96.20
23405;DHT22;11875;49.356;2.718;2023-06-14T05:15:36;18.70;96.10
23405;DHT22;11875;49.356;2.718;2023-06-14T05:18:02;18.80;96.20
23405;DHT22;11875;49.356;2.718;2023-06-14T05:20:28;18.80;96.30
23405;DHT22;11875;49.356;2.718;2023-06-14T05:22:54;18.80;96.10
23405;DHT22;11875;49.356;2.718;2023-06-14T05:25:20;18.90;96.30
23405;DHT22;11875;49.356;2.718;2023-06-14T05:27:46;18.90;96.20
23405;DHT22;11875;49.356;2.718;2023-06-14T05:30:13;19.00;96.20
23405;DHT22;11875;49.356;2.718;2023-06-14T05:32:39;19.20;96.30
23405;DHT22;11875;49.356;2.718;2023-06-14T05:35:06;19.20;96.30
23405;DHT22;11875;49.356;2.718;2023-06-14T05:37:32;19.20;96.40
23405;DHT22;11875;49.356;2.718;2023-06-14T05:39:57;19.20;96.90
23405;DHT22;11875;49.356;2.718;2023-06-14T05:42:23;19.20;96.60
23405;DHT22;11875;49.356;2.718;2023-06-14T05:44:48;19.30;96.50
23405;DHT22;11875;49.356;2.718;2023-06-14T05:47:14;19.40;96.40
23405;DHT22;11875;49.356;2.718;2023-06-14T05:49:40;19.40;96.60
23405;DHT22;11875;49.356;2.718;2023-06-14T05:52:06;18.80;96.10
23405;DHT22;11875;49.356;2.718;2023-06-14T05:54:32;19.50;96.60
23405;DHT22;11875;49.356;2.718;2023-06-14T05:56:57;19.60;96.70
23405;DHT22;11875;49.356;2.718;2023-06-14T05:59:27;19.60;96.50
23405;DHT22;11875;49.356;2.718;2023-06-14T06:01:53;19.60;96.50
23405;DHT22;11875;49.356;2.718;2023-06-14T06:04:19;19.70;96.50
23405;DHT22;11875;49.356;2.718;2023-06-14T06:06:45;19.80;96.60
23405;DHT22;11875;49.356;2.718;2023-06-14T06:09:12;20.00;96.50
23405;DHT22;11875;49.356;2.718;2023-06-14T06:11:37;20.00;96.40
23405;DHT22;11875;49.356;2.718;2023-06-14T06:14:03;19.90;96.50
23405;DHT22;11875;49.356;2.718;2023-06-14T06:16:28;19.90;96.70
23405;DHT22;11875;49.356;2.718;2023-06-14T06:18:54;20.00;97.00
23405;DHT22;11875;49.356;2.718;2023-06-14T06:21:19;19.90;96.90
23405;DHT22;11875;49.356;2.718;2023-06-14T06:23:45;20.00;96.90
23405;DHT22;11875;49.356;2.718;2023-06-14T06:26:11;20.10;97.00
23405;DHT22;11875;49.356;2.718;2023-06-14T06:28:36;20.20;97.10
23405;DHT22;11875;49.356;2.718;2023-06-14T06:31:02;20.30;97.10
23405;DHT22;11875;49.356;2.718;2023-06-14T06:33:28;20.30;97.10
23405;DHT22;11875;49.356;2.718;2023-06-14T06:35:54;20.40;96.80
23405;DHT22;11875;49.356;2.718;2023-06-14T06:38:19;20.50;96.90
23405;DHT22;11875;49.356;2.718;2023-06-14T06:40:45;20.50;97.00
23405;DHT22;11875;49.356;2.718;2023-06-14T06:43:10;20.50;97.00
23405;DHT22;11875;49.356;2.718;2023-06-14T06:45:39;20.60;96.00
23405;DHT22;11875;49.356;2.718;2023-06-14T06:48:05;20.80;96.20
23405;DHT22;11875;49.356;2.718;2023-06-14T06:50:31;20.90;95.70
23405;DHT22;11875;49.356;2.718;2023-06-14T06:52:56;20.90;95.00
23405;DHT22;11875;49.356;2.718;2023-06-14T06:55:22;20.90;94.70
23405;DHT22;11875;49.356;2.718;2023-06-14T06:57:48;22.00;94.40
23405;DHT22;11875;49.356;2.718;2023-06-14T07:00:15;21.10;93.90
23405;DHT22;11875;49.356;2.718;2023-06-14T07:02:41;21.20;94.10
23405;DHT22;11875;49.356;2.718;2023-06-14T07:05:07;21.40;93.90
23405;DHT22;11875;49.356;2.718;2023-06-14T07:07:33;21.40;93.90
23405;DHT22;11875;49.356;2.718;2023-06-14T07:09:59;21.70;94.00
23405;DHT22;11875;49.356;2.718;2023-06-14T07:12:25;22.20;93.40
23405;DHT22;11875;49.356;2.718;2023-06-14T07:14:51;22.70;93.50
23405;DHT22;11875;49.356;2.718;2023-06-14T07:17:17;23.30;92.70
23405;DHT22;11875;49.356;2.718;2023-06-14T07:19:42;23.80;92.00
23405;DHT22;11875;49.356;2.718;2023-06-14T07:22:08;24.20;91.70
23405;DHT22;11875;49.356;2.718;2023-06-14T07:24:34;24.50;91.30
23405;DHT22;11875;49.356;2.718;2023-06-14T07:27:01;24.80;90.70
23405;DHT22;11875;49.356;2.718;2023-06-14T07:29:28;25.00;90.70
23405;DHT22;11875;49.356;2.718;2023-06-14T07:31:54;25.20;90.40
23405;DHT22;11875;49.356;2.718;2023-06-14T07:34:19;25.30;90.30
23405;DHT22;11875;49.356;2.718;2023-06-14T07:36:45;25.50;90.20
23405;DHT22;11875;49.356;2.718;2023-06-14T07:39:11;25.60;89.60
23405;DHT22;11875;49.356;2.718;2023-06-14T07:41:37;25.80;88.70
23405;DHT22;11875;49.356;2.718;2023-06-14T07:44:03;25.80;88.10
23405;DHT22;11875;49.356;2.718;2023-06-14T07:46:28;26.00;87.90
23405;DHT22;11875;49.356;2.718;2023-06-14T07:48:54;26.10;86.60
23405;DHT22;11875;49.356;2.718;2023-06-14T07:51:20;26.20;86.10
23405;DHT22;11875;49.356;2.718;2023-06-14T07:53:47;26.40;86.10
23405;DHT22;11875;49.356;2.718;2023-06-14T07:56:13;26.50;86.30
23405;DHT22;11875;49.356;2.718;2023-06-14T07:58:38;26.50;86.20
23405;DHT22;11875;49.356;2.718;2023-06-14T08:01:04;26.60;85.90
23405;DHT22;11875;49.356;2.718;2023-06-14T08:03:32;26.70;86.10
23405;DHT22;11875;49.356;2.718;2023-06-14T08:05:57;26.90;85.90
23405;DHT22;11875;49.356;2.718;2023-06-14T08:08:23;27.00;85.70
23405;DHT22;11875;49.356;2.718;2023-06-14T08:10:49;27.10;85.60
23405;DHT22;11875;49.356;2.718;2023-06-14T08:13:14;27.20;83.50
23405;DHT22;11875;49.356;2.718;2023-06-14T08:15:40;27.30;82.20
23405;DHT22;11875;49.356;2.718;2023-06-14T08:18:06;27.50;82.70
23405;DHT22;11875;49.356;2.718;2023-06-14T08:20:31;27.60;81.50
23405;DHT22;11875;49.356;2.718;2023-06-14T08:22:57;27.80;79.20
23405;DHT22;11875;49.356;2.718;2023-06-14T08:25:23;27.90;79.50
23405;DHT22;11875;49.356;2.718;2023-06-14T08:27:49;28.00;79.40
23405;DHT22;11875;49.356;2.718;2023-06-14T08:30:16;28.10;78.80
23405;DHT22;11875;49.356;2.718;2023-06-14T08:32:43;28.20;78.70
23405;DHT22;11875;49.356;2.718;2023-06-14T08:35:09;28.10;78.90
23405;DHT22;11875;49.356;2.718;2023-06-14T08:37:41;28.10;79.40
23405;DHT22;11875;49.356;2.718;2023-06-14T08:40:22;28.10;80.00
23405;DHT22;11875;49.356;2.718;2023-06-14T08:42:51;28.30;79.90
23405;DHT22;11875;49.356;2.718;2023-06-14T08:45:19;28.50;78.80
23405;DHT22;11875;49.356;2.718;2023-06-14T08:47:45;28.50;78.40
23405;DHT22;11875;49.356;2.718;2023-06-14T08:50:20;28.60;78.90
23405;DHT22;11875;49.356;2.718;2023-06-14T08:52:48;28.60;79.20
23405;DHT22;11875;49.356;2.718;2023-06-14T08:55:18;28.80;79.50
23405;DHT22;11875;49.356;2.718;2023-06-14T08:57:46;29.00;79.20
23405;DHT22;11875;49.356;2.718;2023-06-14T09:00:14;29.10;78.50
23405;DHT22;11875;49.356;2.718;2023-06-14T09:02:40;29.20;78.10
23405;DHT22;11875;49.356;2.718;2023-06-14T09:05:09;29.50;79.30
23405;DHT22;11875;49.356;2.718;2023-06-14T09:07:37;29.50;77.50
23405;DHT22;11875;49.356;2.718;2023-06-14T09:10:13;29.60;77.80
23405;DHT22;11875;49.356;2.718;2023-06-14T09:12:40;29.70;77.60
23405;DHT22;11875;49.356;2.718;2023-06-14T09:15:06;29.80;76.60
23405;DHT22;11875;49.356;2.718;2023-06-14T09:17:37;30.10;75.90
23405;DHT22;11875;49.356;2.718;2023-06-14T09:20:03;30.10;73.30
23405;DHT22;11875;49.356;2.718;2023-06-14T09:22:35;30.10;73.90
23405;DHT22;11875;49.356;2.718;2023-06-14T09:25:01;30.20;72.50
23405;DHT22;11875;49.356;2.718;2023-06-14T09:27:28;30.20;71.80
23405;DHT22;11875;49.356;2.718;2023-06-14T09:29:54;30.20;72.40
23405;DHT22;11875;49.356;2.718;2023-06-14T09:32:21;30.30;72.00
23405;DHT22;11875;49.356;2.718;2023-06-14T09:34:47;30.30;72.40
23405;DHT22;11875;49.356;2.718;2023-06-14T09:37:12;30.50;71.60
23405;DHT22;11875;49.356;2.718;2023-06-14T09:39:50;30.60;70.70
23405;DHT22;11875;49.356;2.718;2023-06-14T09:42:17;30.60;70.10
23405;DHT22;11875;49.356;2.718;2023-06-14T09:44:44;30.50;69.40
23405;DHT22;11875;49.356;2.718;2023-06-14T09:47:12;30.40;68.80
23405;DHT22;11875;49.356;2.718;2023-06-14T09:49:37;30.50;67.40
23405;DHT22;11875;49.356;2.718;2023-06-14T09:52:05;30.50;68.00
23405;DHT22;11875;49.356;2.718;2023-06-14T09:54:33;30.60;66.50
23405;DHT22;11875;49.356;2.718;2023-06-14T09:57:02;30.70;66.60
23405;DHT22;11875;49.356;2.718;2023-06-14T09:59:31;30.90;66.70
23405;DHT22;11875;49.356;2.718;2023-06-14T10:01:58;30.90;66.60
23405;DHT22;11875;49.356;2.718;2023-06-14T10:04:28;31.00;66.60
23405;DHT22;11875;49.356;2.718;2023-06-14T10:06:54;31.20;65.70
23405;DHT22;11875;49.356;2.718;2023-06-14T10:09:21;31.30;64.20
23405;DHT22;11875;49.356;2.718;2023-06-14T10:11:47;31.40;64.60
23405;DHT22;11875;49.356;2.718;2023-06-14T10:14:13;31.50;63.70
23405;DHT22;11875;49.356;2.718;2023-06-14T10:16:57;31.50;61.80
23405;DHT22;11875;49.356;2.718;2023-06-14T10:19:31;31.40;63.80
23405;DHT22;11875;49.356;2.718;2023-06-14T10:22:04;31.30;62.40
23405;DHT22;11875;49.356;2.718;2023-06-14T10:24:33;31.20;62.70
23405;DHT22;11875;49.356;2.718;2023-06-14T10:27:00;31.00;61.00
23405;DHT22;11875;49.356;2.718;2023-06-14T10:29:27;31.00;61.10
23405;DHT22;11875;49.356;2.718;2023-06-14T10:31:58;30.90;60.60
23405;DHT22;11875;49.356;2.718;2023-06-14T10:34:28;30.50;62.80
23405;DHT22;11875;49.356;2.718;2023-06-14T10:37:05;30.30;60.60
23405;DHT22;11875;49.356;2.718;2023-06-14T10:39:33;30.10;60.50
23405;DHT22;11875;49.356;2.718;2023-06-14T10:42:02;30.10;59.70
23405;DHT22;11875;49.356;2.718;2023-06-14T10:46:58;30.30;58.70
23405;DHT22;11875;49.356;2.718;2023-06-14T10:52:28;30.50;59.30
23405;DHT22;11875;49.356;2.718;2023-06-14T10:55:12;30.70;59.80
23405;DHT22;11875;49.356;2.718;2023-06-14T10:57:45;30.80;59.50
23405;DHT22;11875;49.356;2.718;2023-06-14T11:00:20;30.80;60.30
23405;DHT22;11875;49.356;2.718;2023-06-14T11:05:56;31.00;59.40
23405;DHT22;11875;49.356;2.718;2023-06-14T11:11:22;31.30;57.00
23405;DHT22;11875;49.356;2.718;2023-06-14T11:13:48;31.40;57.20
23405;DHT22;11875;49.356;2.718;2023-06-14T11:16:16;31.50;56.60
23405;DHT22;11875;49.356;2.718;2023-06-14T11:18:44;31.70;56.60
23405;DHT22;11875;49.356;2.718;2023-06-14T11:21:10;31.70;58.20
23405;DHT22;11875;49.356;2.718;2023-06-14T11:23:36;31.70;57.90
23405;DHT22;11875;49.356;2.718;2023-06-14T11:26:01;31.90;57.50
23405;DHT22;11875;49.356;2.718;2023-06-14T11:28:38;31.90;57.70
23405;DHT22;11875;49.356;2.718;2023-06-14T11:31:04;32.20;56.90
23405;DHT22;11875;49.356;2.718;2023-06-14T11:33:30;32.30;58.20
23405;DHT22;11875;49.356;2.718;2023-06-14T11:35:56;32.30;57.70
23405;DHT22;11875;49.356;2.718;2023-06-14T11:38:21;32.10;57.30
23405;DHT22;11875;49.356;2.718;2023-06-14T11:40:47;32.00;57.90
23405;DHT22;11875;49.356;2.718;2023-06-14T11:43:13;31.90;58.10
23405;DHT22;11875;49.356;2.718;2023-06-14T11:45:39;31.80;57.70
23405;DHT22;11875;49.356;2.718;2023-06-14T11:48:06;31.70;58.00
23405;DHT22;11875;49.356;2.718;2023-06-14T11:50:32;31.50;57.90
23405;DHT22;11875;49.356;2.718;2023-06-14T11:53:01;31.50;58.30
23405;DHT22;11875;49.356;2.718;2023-06-14T11:55:41;31.70;58.30
23405;DHT22;11875;49.356;2.718;2023-06-14T11:58:10;31.70;58.70
23405;DHT22;11875;49.356;2.718;2023-06-14T12:00:36;31.60;58.00
23405;DHT22;11875;49.356;2.718;2023-06-14T12:03:02;31.80;58.10
23405;DHT22;11875;49.356;2.718;2023-06-14T12:05:28;31.90;59.00
23405;DHT22;11875;49.356;2.718;2023-06-14T12:08:02;31.90;57.20
23405;DHT22;11875;49.356;2.718;2023-06-14T12:10:28;32.30;57.50
23405;DHT22;11875;49.356;2.718;2023-06-14T12:13:00;32.20;57.40
23405;DHT22;11875;49.356;2.718;2023-06-14T12:15:31;32.30;58.20
23405;DHT22;11875;49.356;2.718;2023-06-14T12:17:57;32.30;57.40
23405;DHT22;11875;49.356;2.718;2023-06-14T12:20:29;32.10;57.50
23405;DHT22;11875;49.356;2.718;2023-06-14T12:22:57;31.70;57.90
23405;DHT22;11875;49.356;2.718;2023-06-14T12:27:58;32.20;57.60
23405;DHT22;11875;49.356;2.718;2023-06-14T12:30:23;32.20;57.70
23405;DHT22;11875;49.356;2.718;2023-06-14T12:32:49;32.10;56.70
23405;DHT22;11875;49.356;2.718;2023-06-14T12:35:17;32.10;56.60
23405;DHT22;11875;49.356;2.718;2023-06-14T12:37:43;32.30;57.00
23405;DHT22;11875;49.356;2.718;2023-06-14T12:40:09;32.50;56.90
23405;DHT22;11875;49.356;2.718;2023-06-14T12:42:36;32.70;57.30
23405;DHT22;11875;49.356;2.718;2023-06-14T12:45:02;32.60;56.40
23405;DHT22;11875;49.356;2.718;2023-06-14T12:47:28;32.70;57.00
23405;DHT22;11875;49.356;2.718;2023-06-14T12:49:53;32.70;56.80
23405;DHT22;11875;49.356;2.718;2023-06-14T12:52:19;32.70;56.20
23405;DHT22;11875;49.356;2.718;2023-06-14T12:54:45;32.70;56.40
23405;DHT22;11875;49.356;2.718;2023-06-14T12:57:10;32.60;55.50
23405;DHT22;11875;49.356;2.718;2023-06-14T12:59:36;32.70;56.20
23405;DHT22;11875;49.356;2.718;2023-06-14T13:02:16;32.70;56.00
23405;DHT22;11875;49.356;2.718;2023-06-14T13:04:43;32.90;55.30
23405;DHT22;11875;49.356;2.718;2023-06-14T13:07:09;32.80;55.00
23405;DHT22;11875;49.356;2.718;2023-06-14T13:09:36;32.70;54.90
23405;DHT22;11875;49.356;2.718;2023-06-14T13:12:02;32.70;55.80
23405;DHT22;11875;49.356;2.718;2023-06-14T13:14:28;32.80;55.90
23405;DHT22;11875;49.356;2.718;2023-06-14T13:16:53;32.80;56.10
23405;DHT22;11875;49.356;2.718;2023-06-14T13:19:19;32.80;55.50
23405;DHT22;11875;49.356;2.718;2023-06-14T13:21:45;32.90;57.00
23405;DHT22;11875;49.356;2.718;2023-06-14T13:24:10;33.00;55.80
23405;DHT22;11875;49.356;2.718;2023-06-14T13:26:36;33.00;55.60
23405;DHT22;11875;49.356;2.718;2023-06-14T13:29:01;33.00;56.50
23405;DHT22;11875;49.356;2.718;2023-06-14T13:31:27;32.90;55.20
23405;DHT22;11875;49.356;2.718;2023-06-14T13:33:53;32.40;55.90
23405;DHT22;11875;49.356;2.718;2023-06-14T13:36:18;32.70;56.70
23405;DHT22;11875;49.356;2.718;2023-06-14T13:38:44;32.90;56.30
23405;DHT22;11875;49.356;2.718;2023-06-14T13:41:09;33.00;56.50
23405;DHT22;11875;49.356;2.718;2023-06-14T13:43:35;33.10;56.50
23405;DHT22;11875;49.356;2.718;2023-06-14T13:46:00;33.30;56.40
23405;DHT22;11875;49.356;2.718;2023-06-14T13:48:26;33.30;56.10
23405;DHT22;11875;49.356;2.718;2023-06-14T13:50:52;33.20;55.70
23405;DHT22;11875;49.356;2.718;2023-06-14T13:53:18;33.10;55.70
23405;DHT22;11875;49.356;2.718;2023-06-14T13:55:43;33.00;56.30
23405;DHT22;11875;49.356;2.718;2023-06-14T13:58:09;33.00;56.40
23405;DHT22;11875;49.356;2.718;2023-06-14T14:00:35;33.10;56.40
23405;DHT22;11875;49.356;2.718;2023-06-14T14:03:05;33.00;56.80
23405;DHT22;11875;49.356;2.718;2023-06-14T14:05:31;33.00;56.90
23405;DHT22;11875;49.356;2.718;2023-06-14T14:07:57;33.00;57.00
23405;DHT22;11875;49.356;2.718;2023-06-14T14:10:24;33.20;56.20
23405;DHT22;11875;49.356;2.718;2023-06-14T14:12:50;33.10;56.10
23405;DHT22;11875;49.356;2.718;2023-06-14T14:15:16;33.10;56.20
23405;DHT22;11875;49.356;2.718;2023-06-14T14:17:42;33.20;57.00
23405;DHT22;11875;49.356;2.718;2023-06-14T14:20:08;33.20;57.70
23405;DHT22;11875;49.356;2.718;2023-06-14T14:22:34;33.30;57.40
23405;DHT22;11875;49.356;2.718;2023-06-14T14:25:00;33.20;56.60
23405;DHT22;11875;49.356;2.718;2023-06-14T14:27:25;33.20;56.70
23405;DHT22;11875;49.356;2.718;2023-06-14T14:29:51;33.20;57.00
23405;DHT22;11875;49.356;2.718;2023-06-14T14:32:16;33.10;56.40
23405;DHT22;11875;49.356;2.718;2023-06-14T14:34:42;33.10;57.20
23405;DHT22;11875;49.356;2.718;2023-06-14T14:37:08;33.30;56.00
23405;DHT22;11875;49.356;2.718;2023-06-14T14:39:33;33.40;56.90
23405;DHT22;11875;49.356;2.718;2023-06-14T14:41:59;33.60;56.50
23405;DHT22;11875;49.356;2.718;2023-06-14T14:44:25;33.70;56.30
23405;DHT22;11875;49.356;2.718;2023-06-14T14:46:51;33.70;55.30
23405;DHT22;11875;49.356;2.718;2023-06-14T14:49:16;33.70;55.30
23405;DHT22;11875;49.356;2.718;2023-06-14T14:51:42;33.60;55.50
23405;DHT22;11875;49.356;2.718;2023-06-14T14:54:08;33.70;55.70
23405;DHT22;11875;49.356;2.718;2023-06-14T14:56:33;33.80;55.90
23405;DHT22;11875;49.356;2.718;2023-06-14T14:59:00;33.80;56.00
23405;DHT22;11875;49.356;2.718;2023-06-14T15:01:26;33.80;55.80
23405;DHT22;11875;49.356;2.718;2023-06-14T15:03:51;33.70;56.00
23405;DHT22;11875;49.356;2.718;2023-06-14T15:06:17;33.70;56.60
23405;DHT22;11875;49.356;2.718;2023-06-14T15:08:43;33.60;56.20
23405;DHT22;11875;49.356;2.718;2023-06-14T15:11:09;33.70;55.70
23405;DHT22;11875;49.356;2.718;2023-06-14T15:13:35;33.70;55.50
23405;DHT22;11875;49.356;2.718;2023-06-14T15:16:01;33.70;55.60
23405;DHT22;11875;49.356;2.718;2023-06-14T15:18:26;33.70;55.30
23405;DHT22;11875;49.356;2.718;2023-06-14T15:20:52;33.70;56.40
23405;DHT22;11875;49.356;2.718;2023-06-14T15:23:17;33.70;56.50
23405;DHT22;11875;49.356;2.718;2023-06-14T15:25:46;33.70;56.60
23405;DHT22;11875;49.356;2.718;2023-06-14T15:28:12;33.70;56.30
23405;DHT22;11875;49.356;2.718;2023-06-14T15:30:38;33.70;56.10
23405;DHT22;11875;49.356;2.718;2023-06-14T15:33:04;33.70;56.10
23405;DHT22;11875;49.356;2.718;2023-06-14T15:35:30;33.70;56.00
23405;DHT22;11875;49.356;2.718;2023-06-14T15:37:55;33.70;55.70
23405;DHT22;11875;49.356;2.718;2023-06-14T15:40:21;33.70;56.20
23405;DHT22;11875;49.356;2.718;2023-06-14T15:42:46;33.80;56.20
23405;DHT22;11875;49.356;2.718;2023-06-14T15:45:12;33.70;54.70
23405;DHT22;11875;49.356;2.718;2023-06-14T15:47:38;33.70;55.70